Aviation Digital Data Service (ADDS)

Output produced by METARs form (0559 UTC 22 October 2018)
found at http://www.aviationweather.gov/metar/data/
 
METAR text: RJAA 220530Z 07007KT 360V110 9999 FEW035 20/11 Q1022 NOSIG RMK 1CU035 A3019
Conditions at: RJAA (NARITA INTL , JP) observed 0530 UTC 22 October 2018
Temperature: 20.0°C (68°F)
Dewpoint: 11.0°C (52°F) [RH = 56%]
Pressure (altimeter): 30.18 inches Hg (1022.0 mb)
Winds: from the ENE (70 degrees) at 8 MPH (7 knots; 3.6 m/s)
Visibility: 6 or more miles (10+ km)
Ceiling: at least 12,000 feet AGL
Clouds: few clouds at 3500 feet AGL
Weather: no significant weather observed at this time

METAR text: RJAA 220500Z 06007KT 020V130 9999 FEW035 21/10 Q1022 BECMG 08008KT RMK 1CU035 A3019
Conditions at: RJAA (NARITA INTL , JP) observed 0500 UTC 22 October 2018
Temperature: 21.0°C (70°F)
Dewpoint: 10.0°C (50°F) [RH = 49%]
Pressure (altimeter): 30.18 inches Hg (1022.0 mb)
Winds: from the ENE (60 degrees) at 8 MPH (7 knots; 3.6 m/s)
Visibility: 6 or more miles (10+ km)
Ceiling: at least 12,000 feet AGL
Clouds: few clouds at 3500 feet AGL
Weather: no significant weather observed at this time

Forecast for: RJAA (NARITA INTL , JP)
Text: TAF RJAA 220505Z 2206/2312 08007KT 9999 FEW025
Forecast period: 0600 to 0700 UTC 22 October 2018
Forecast type: FROM: standard forecast or significant change
Winds: from the E (80 degrees) at 8 MPH (7 knots; 3.6 m/s)
Visibility: 6 or more miles 10+ km)
Ceiling: at least 12,000 feet AGL
Clouds: few clouds at 2500 feet AGL
Weather: no significant weather forecast for this period
Text: BECMG 2207/2209 02007KT
Forecast period: 0700 UTC 22 October 2018 to 0000 UTC 23 October 2018
Forecast type: BECOMING: Conditions expected to become as follows by 0900 UTC 22 October 2018
Winds: from the NNE (20 degrees) at 8 MPH (7 knots; 3.6 m/s)
Visibility: 6 or more miles 10+ km)
Ceiling: at least 12,000 feet AGL
Clouds: few clouds at 2500 feet AGL
Weather: no significant weather forecast for this period
Text: BECMG 2300/2303 08008KT
Forecast period: 0000 to 0600 UTC 23 October 2018
Forecast type: BECOMING: Conditions expected to become as follows by 0300 UTC 23 October 2018
Winds: from the E (80 degrees) at 9 MPH (8 knots; 4.1 m/s)
Visibility: 6 or more miles 10+ km)
Ceiling: at least 12,000 feet AGL
Clouds: few clouds at 2500 feet AGL
Weather: no significant weather forecast for this period
Text: BECMG 2306/2309 04007KT
Forecast period: 0600 to 1200 UTC 23 October 2018
Forecast type: BECOMING: Conditions expected to become as follows by 0900 UTC 23 October 2018
Winds: from the NE (40 degrees) at 8 MPH (7 knots; 3.6 m/s)
Visibility: 6 or more miles 10+ km)
Ceiling: at least 12,000 feet AGL
Clouds: few clouds at 2500 feet AGL
Weather: no significant weather forecast for this period